Time;durP1;ratioP1;P1;durP2;ratioP2;P2;SDS_P1;SDS_P2;PMS_P1;PMS_P2;Temp;Humidity;BMP_temperature;BMP_pressure;BME280_temperature;BME280_humidity;BME280_pressure;Samples;Min_cycle;Max_cycle;Signal;HPM_P1;HPM_P2
2021/08/01 02:45:55;;;;;;;10.85;8.77;;;22.20;99.90;;;;;;5571096;23;20092;-80
2021/08/01 02:48:23;;;;;;;10.80;9.48;;;22.30;99.90;;;;;;4869351;29;20046;-80
2021/08/01 02:51:01;;;;;;;12.90;9.90;;;22.30;99.90;;;;;;4870839;29;20053;-80
2021/08/01 02:53:30;;;;;;;14.90;11.32;;;22.30;99.90;;;;;;4856939;29;20105;-80
2021/08/01 02:55:59;;;;;;;17.73;12.65;;;22.30;99.90;;;;;;4858477;29;20074;-81
2021/08/01 02:58:29;;;;;;;13.75;11.00;;;22.30;99.90;;;;;;4857419;29;20321;-80
2021/08/01 03:00:56;;;;;;;11.93;10.50;;;22.30;99.90;;;;;;4856968;29;20030;-81
2021/08/01 03:03:23;;;;;;;16.98;12.95;;;22.20;99.90;;;;;;4856945;29;20038;-81
2021/08/01 03:05:50;;;;;;;16.50;13.25;;;22.20;99.90;;;;;;4856063;29;20042;-83
2021/08/01 03:08:19;;;;;;;19.92;12.90;;;22.10;99.90;;;;;;4855031;29;20091;-83
2021/08/01 03:10:57;;;;;;;23.13;13.73;;;22.10;99.90;;;;;;4855091;29;20114;-83
2021/08/01 03:13:23;;;;;;;16.50;12.20;;;21.90;99.90;;;;;;4855165;29;20025;-83
2021/08/01 03:15:50;;;;;;;20.90;12.90;;;21.70;99.90;;;;;;4855368;29;20342;-83
2021/08/01 03:18:16;;;;;;;;;;;21.70;99.90;;;;;;4871595;29;20392;-83
2021/08/01 03:20:42;;;;;;;17.07;12.73;;;21.70;99.90;;;;;;4855804;29;19916;-82
2021/08/01 03:23:23;;;;;;;20.92;14.73;;;21.70;99.90;;;;;;4856101;29;20042;-83
2021/08/01 03:26:40;;;;;;;19.90;12.98;;;21.70;99.90;;;;;;4854872;29;20057;-83
2021/08/01 03:29:06;;;;;;;18.17;14.48;;;21.70;99.90;;;;;;4853964;29;20373;-84
2021/08/01 03:31:32;;;;;;;20.45;13.75;;;21.70;99.90;;;;;;4869120;29;20041;-83
2021/08/01 03:34:34;;;;;;;17.30;13.30;;;21.70;99.90;;;;;;4839923;29;20057;-83
2021/08/01 03:37:06;;;;;;;17.60;12.38;;;21.80;99.90;;;;;;4850299;29;20042;-84
2021/08/01 03:39:50;;;;;;;19.20;13.07;;;21.70;99.90;;;;;;4835456;29;20046;-83
2021/08/01 03:42:17;;;;;;;16.48;12.75;;;21.70;99.90;;;;;;4835061;29;20061;-83
2021/08/01 03:44:43;;;;;;;19.55;12.82;;;21.70;99.90;;;;;;4835267;29;20038;-83
2021/08/01 03:47:09;;;;;;;19.60;12.65;;;21.70;99.90;;;;;;4834810;29;20046;-82
2021/08/01 03:49:34;;;;;;;20.70;13.75;;;21.60;99.90;;;;;;4820438;29;20086;-82
2021/08/01 03:52:00;;;;;;;15.43;11.75;;;21.60;99.90;;;;;;4820485;29;20050;-82
2021/08/01 03:54:26;;;;;;;16.77;11.35;;;21.50;99.90;;;;;;4820178;29;20062;-82
2021/08/01 03:56:52;;;;;;;20.40;13.15;;;21.50;99.90;;;;;;4835364;29;20034;-81
2021/08/01 03:59:18;;;;;;;17.88;11.38;;;21.50;99.90;;;;;;4820066;29;20342;-81
2021/08/01 04:01:44;;;;;;;14.27;9.98;;;21.50;99.90;;;;;;4815442;29;20054;-81
2021/08/01 04:04:10;;;;;;;13.75;10.05;;;21.60;99.90;;;;;;4783981;30;20039;-81
2021/08/01 04:06:36;;;;;;;15.75;12.45;;;21.60;99.90;;;;;;4799190;30;20050;-81
2021/08/01 04:09:07;;;;;;;19.15;13.73;;;21.70;99.90;;;;;;4783829;30;20118;-81
2021/08/01 04:11:33;;;;;;;17.77;12.90;;;21.80;99.90;;;;;;4785316;30;20213;-81
2021/08/01 04:13:59;;;;;;;18.27;12.40;;;21.80;99.90;;;;;;4799952;30;20062;-81
2021/08/01 04:16:26;;;;;;;21.70;12.55;;;21.80;99.90;;;;;;4785630;30;20035;-81
2021/08/01 04:18:51;;;;;;;12.35;10.70;;;21.90;99.90;;;;;;4769860;30;20115;-81
2021/08/01 04:21:17;;;;;;;14.27;10.55;;;21.90;99.90;;;;;;4803284;29;20046;-81
2021/08/01 04:23:43;;;;;;;17.25;11.25;;;22.00;99.90;;;;;;4812620;29;20079;-81
2021/08/01 04:26:09;;;;;;;13.48;10.02;;;22.00;99.90;;;;;;4821182;29;20334;-81
2021/08/01 04:28:36;;;;;;;13.63;10.25;;;22.20;99.90;;;;;;4855080;29;20037;-81
2021/08/01 04:31:02;;;;;;;11.90;10.48;;;22.30;99.90;;;;;;4854775;29;20082;-81
2021/08/01 04:33:28;;;;;;;19.92;11.90;;;22.20;99.90;;;;;;4855002;29;20033;-81
2021/08/01 04:35:54;;;;;;;15.10;9.82;;;22.20;99.90;;;;;;4855503;29;20041;-81
2021/08/01 04:38:20;;;;;;;15.27;11.27;;;22.20;99.90;;;;;;4854835;29;20037;-81
2021/08/01 04:40:46;;;;;;;18.83;12.02;;;22.30;99.90;;;;;;4855441;29;20037;-81
2021/08/01 04:43:12;;;;;;;13.75;10.48;;;22.30;99.90;;;;;;4855203;29;20034;-81
2021/08/01 04:45:38;;;;;;;12.90;9.68;;;22.40;99.90;;;;;;4851662;29;20050;-81
2021/08/01 04:48:05;;;;;;;12.82;10.27;;;22.40;99.90;;;;;;4852340;29;20037;-81
2021/08/01 04:50:31;;;;;;;17.10;11.02;;;22.40;99.90;;;;;;4854930;29;20036;-80
2021/08/01 04:52:57;;;;;;;10.75;8.73;;;22.40;99.90;;;;;;4854735;29;20113;-81
2021/08/01 04:55:23;;;;;;;8.93;6.95;;;22.20;99.90;;;;;;4854528;29;20042;-81
2021/08/01 04:57:50;;;;;;;9.85;6.00;;;22.10;99.90;;;;;;4854269;29;20243;-80
2021/08/01 05:00:16;;;;;;;11.73;6.32;;;21.90;99.90;;;;;;4850036;29;20030;-81
2021/08/01 05:02:42;;;;;;;8.85;6.32;;;21.70;99.90;;;;;;4854775;29;20247;-81
2021/08/01 05:05:08;;;;;;;8.30;6.35;;;21.70;99.90;;;;;;4854529;29;20021;-79
2021/08/01 05:07:34;;;;;;;9.55;6.40;;;21.80;99.90;;;;;;4854592;29;20056;-80
2021/08/01 05:10:00;;;;;;;9.55;5.80;;;21.80;99.90;;;;;;4855642;29;20022;-80
2021/08/01 05:12:26;;;;;;;8.30;5.57;;;21.80;99.90;;;;;;4854297;29;20290;-80
2021/08/01 05:14:53;;;;;;;8.48;6.22;;;21.90;99.90;;;;;;4854313;29;20225;-80
2021/08/01 05:17:18;;;;;;;11.52;7.18;;;22.00;99.90;;;;;;4852554;29;20045;-81
2021/08/01 05:19:44;;;;;;;10.02;6.43;;;22.10;99.90;;;;;;4851260;29;20058;-81
2021/08/01 05:22:13;;;;;;;9.35;5.75;;;22.20;99.90;;;;;;4869152;29;20061;-81
2021/08/01 05:24:41;;;;;;;8.00;5.65;;;22.20;99.90;;;;;;4851363;29;20058;-81
2021/08/01 05:27:07;;;;;;;10.98;6.30;;;22.30;99.90;;;;;;4860644;29;20022;-82
2021/08/01 05:29:32;;;;;;;7.15;5.63;;;22.40;99.90;;;;;;4852599;29;20030;-81
2021/08/01 05:31:58;;;;;;;7.95;6.53;;;22.50;99.90;;;;;;4850512;29;20228;-81
2021/08/01 05:34:24;;;;;;;10.05;7.00;;;22.60;99.90;;;;;;4842090;29;20035;-82
2021/08/01 05:36:50;;;;;;;9.07;7.05;;;22.70;99.90;;;;;;4838235;29;20022;-82
2021/08/01 05:39:16;;;;;;;7.10;5.72;;;22.80;99.90;;;;;;4853831;29;20344;-81
2021/08/01 05:41:42;;;;;;;8.23;6.00;;;22.70;99.90;;;;;;4851146;29;20097;-81
2021/08/01 05:44:08;;;;;;;6.80;5.05;;;22.80;99.90;;;;;;4854745;29;20105;-80
2021/08/01 05:46:33;;;;;;;7.68;5.93;;;22.80;99.90;;;;;;4854463;29;20054;-81
2021/08/01 05:48:59;;;;;;;9.10;6.65;;;22.80;99.90;;;;;;4853570;29;20295;-80
2021/08/01 05:51:25;;;;;;;6.57;5.60;;;22.80;99.90;;;;;;4868958;29;20037;-80
2021/08/01 05:53:51;;;;;;;10.68;6.80;;;22.60;99.90;;;;;;4853193;29;20034;-80
2021/08/01 05:56:16;;;;;;;11.00;7.35;;;22.50;99.90;;;;;;4853205;29;20052;-81
2021/08/01 05:58:42;;;;;;;13.02;7.03;;;22.40;99.90;;;;;;4852951;29;20034;-81
2021/08/01 06:01:16;;;;;;;14.18;7.20;;;22.30;99.90;;;;;;4852668;29;20034;-81
2021/08/01 06:03:43;;;;;;;10.07;6.75;;;22.30;99.90;;;;;;4862424;29;20040;-80
2021/08/01 06:06:13;;;;;;;;;;;22.30;99.90;;;;;;4838105;29;20082;-80
2021/08/01 06:09:16;;;;;;;23.67;9.40;;;22.20;99.90;;;;;;4841549;29;20106;-81
2021/08/01 06:11:45;;;;;;;16.27;8.88;;;22.20;99.90;;;;;;4848643;29;20042;-84
2021/08/01 06:14:14;;;;;;;11.68;7.05;;;22.00;99.90;;;;;;4829554;29;20041;-84
2021/08/01 06:16:42;;;;;;;17.15;8.55;;;21.90;99.90;;;;;;4845579;29;20022;-84
2021/08/01 06:19:11;;;;;;;16.17;7.75;;;21.90;99.90;;;;;;4870799;29;20087;-84
2021/08/01 06:21:37;;;;;;;12.05;7.25;;;21.90;99.90;;;;;;4852010;29;20037;-83
2021/08/01 06:24:02;;;;;;;9.43;6.65;;;21.90;99.90;;;;;;4869397;29;20229;-83
2021/08/01 06:26:28;;;;;;;10.18;7.07;;;21.90;99.90;;;;;;4857213;29;20029;-83
2021/08/01 06:28:54;;;;;;;6.80;5.60;;;22.00;99.90;;;;;;4857381;29;20280;-83
2021/08/01 06:31:20;;;;;;;12.15;6.63;;;22.10;99.90;;;;;;4856600;29;20026;-83
2021/08/01 06:33:46;;;;;;;6.30;5.13;;;22.30;99.90;;;;;;4856940;29;20240;-83
2021/08/01 06:36:14;;;;;;;7.03;4.18;;;22.70;99.90;;;;;;4856577;29;20029;-82
2021/08/01 06:38:41;;;;;;;5.45;4.35;;;22.90;99.90;;;;;;4849402;29;20254;-82
2021/08/01 06:41:07;;;;;;;6.75;4.90;;;23.00;99.90;;;;;;4854841;29;20207;-82
2021/08/01 06:43:33;;;;;;;9.85;5.72;;;23.10;99.90;;;;;;4857067;29;20078;-81
2021/08/01 06:45:59;;;;;;;10.80;6.28;;;23.10;99.90;;;;;;4851673;29;20057;-81
2021/08/01 06:48:25;;;;;;;6.90;5.67;;;23.20;99.90;;;;;;4868415;29;20040;-81
2021/08/01 06:50:51;;;;;;;10.77;5.73;;;23.30;99.90;;;;;;4857377;29;20053;-81
2021/08/01 06:53:18;;;;;;;11.73;6.38;;;23.40;99.90;;;;;;4863939;29;20025;-81
2021/08/01 06:55:43;;;;;;;10.90;6.00;;;23.50;99.90;;;;;;4875592;29;20033;-81
2021/08/01 06:58:09;;;;;;;10.95;5.18;;;23.60;99.90;;;;;;4875534;29;20072;-81
2021/08/01 07:00:35;;;;;;;6.25;5.13;;;23.70;99.90;;;;;;4869053;29;20309;-81
2021/08/01 07:03:02;;;;;;;6.88;5.32;;;23.70;99.90;;;;;;4856837;29;20112;-82
2021/08/01 07:05:29;;;;;;;7.85;5.82;;;23.80;99.90;;;;;;4851252;29;20298;-80
2021/08/01 07:07:55;;;;;;;7.53;5.20;;;23.80;99.90;;;;;;4855710;29;20053;-81
2021/08/01 07:10:23;;;;;;;14.32;6.10;;;23.80;99.90;;;;;;4855749;29;20030;-82
2021/08/01 07:12:49;;;;;;;6.30;5.68;;;23.80;99.90;;;;;;4849630;29;20040;-81
2021/08/01 07:15:17;;;;;;;8.73;5.32;;;23.80;99.90;;;;;;4856819;29;20401;-82
2021/08/01 07:17:44;;;;;;;7.88;5.50;;;23.90;99.90;;;;;;4870517;29;20038;-81
2021/08/01 07:20:12;;;;;;;11.40;6.78;;;24.00;99.90;;;;;;4856161;29;20050;-81
2021/08/01 07:22:39;;;;;;;10.13;5.93;;;24.20;99.90;;;;;;4855242;29;20026;-83
2021/08/01 07:25:06;;;;;;;6.20;5.57;;;24.30;99.90;;;;;;4855459;29;20060;-83
2021/08/01 07:27:31;;;;;;;6.70;5.65;;;24.20;99.90;;;;;;4854301;29;20045;-83
2021/08/01 07:29:57;;;;;;;13.30;5.85;;;24.30;99.90;;;;;;4851669;29;20310;-82
2021/08/01 07:32:23;;;;;;;10.32;5.78;;;24.30;99.90;;;;;;4864663;29;20033;-82
2021/08/01 07:34:49;;;;;;;9.82;6.25;;;24.20;99.90;;;;;;4840065;29;20096;-82
2021/08/01 07:37:16;;;;;;;6.72;6.00;;;24.20;99.90;;;;;;4839438;29;20053;-82
2021/08/01 07:39:42;;;;;;;;;;;24.10;99.90;;;;;;4851004;29;20038;-86
2021/08/01 07:42:08;;;;;;;7.68;6.10;;;24.10;99.90;;;;;;4854550;29;19916;-85
2021/08/01 07:44:46;;;;;;;11.00;6.93;;;23.90;99.90;;;;;;4855275;29;20053;-85
2021/08/01 07:47:16;;;;;;;7.75;6.80;;;23.80;99.90;;;;;;4854387;29;20061;-85
2021/08/01 07:49:42;;;;;;;7.55;6.35;;;23.70;99.90;;;;;;4854923;29;20314;-87
2021/08/01 07:52:09;;;;;;;8.70;6.43;;;23.60;99.90;;;;;;4854742;29;20230;-87
2021/08/01 07:54:38;;;;;;;6.43;5.70;;;23.50;99.90;;;;;;4855302;29;20026;-87
2021/08/01 07:57:29;;;;;;;12.25;7.00;;;23.50;99.90;;;;;;4870267;29;20109;-87
2021/08/01 08:00:02;;;;;;;9.98;6.78;;;23.40;99.90;;;;;;4852641;29;20041;-87
2021/08/01 08:02:39;;;;;;;12.65;7.03;;;23.30;99.90;;;;;;4854982;29;20038;-87
2021/08/01 08:05:05;;;;;;;10.95;6.40;;;23.20;99.90;;;;;;4853861;29;20070;-86
2021/08/01 08:07:31;;;;;;;9.13;7.43;;;23.20;99.90;;;;;;4851428;29;20030;-83
2021/08/01 08:09:57;;;;;;;11.07;7.38;;;23.20;99.90;;;;;;4853081;29;20037;-84
2021/08/01 08:12:23;;;;;;;22.27;9.43;;;23.10;99.90;;;;;;4854130;29;20026;-84
2021/08/01 08:14:51;;;;;;;9.55;8.05;;;23.10;99.90;;;;;;4854550;29;20029;-86
2021/08/01 08:17:17;;;;;;;13.00;8.93;;;23.10;99.90;;;;;;4839877;29;20031;-84
2021/08/01 08:19:45;;;;;;;14.23;9.32;;;23.10;99.90;;;;;;4842966;29;20038;-84
2021/08/01 08:22:12;;;;;;;13.00;9.18;;;23.00;99.90;;;;;;4841197;29;20030;-84
2021/08/01 08:24:38;;;;;;;11.57;9.37;;;22.90;99.90;;;;;;4854057;29;20042;-84
2021/08/01 08:27:04;;;;;;;12.98;8.60;;;22.80;99.90;;;;;;4843135;29;20225;-84
2021/08/01 08:29:31;;;;;;;9.48;7.93;;;22.80;99.90;;;;;;4865284;29;20093;-83
2021/08/01 08:31:58;;;;;;;13.60;10.40;;;22.90;99.90;;;;;;4854807;29;20033;-85
2021/08/01 08:34:24;;;;;;;;;;;22.90;99.90;;;;;;4855004;29;20041;-86
2021/08/01 08:36:52;;;;;;;17.35;10.02;;;22.80;99.90;;;;;;4855974;29;19915;-85
2021/08/01 08:39:22;;;;;;;12.88;10.15;;;22.80;99.90;;;;;;4855623;29;20045;-85
2021/08/01 08:41:49;;;;;;;11.57;10.10;;;22.90;99.90;;;;;;4856184;29;20037;-84
2021/08/01 08:44:16;;;;;;;13.20;9.50;;;23.00;99.90;;;;;;4855681;29;20049;-84
2021/08/01 08:46:42;;;;;;;;;;;23.10;99.90;;;;;;4843489;29;20054;-85
2021/08/01 08:49:13;;;;;;;18.43;9.87;;;23.10;99.90;;;;;;4860625;29;20112;-84
2021/08/01 08:51:42;;;;;;;12.27;8.80;;;23.10;99.90;;;;;;4854097;29;20021;-84
2021/08/01 08:54:16;;;;;;;11.25;9.40;;;23.20;99.90;;;;;;4858858;29;20026;-84
2021/08/01 08:56:45;;;;;;;13.57;10.80;;;23.30;99.90;;;;;;4855717;29;20062;-85
2021/08/01 08:59:16;;;;;;;11.07;9.25;;;23.40;99.90;;;;;;4859201;29;20029;-84
2021/08/01 09:01:42;;;;;;;15.23;8.85;;;23.60;99.90;;;;;;4842335;29;20041;-85
2021/08/01 09:04:12;;;;;;;13.35;8.98;;;23.80;99.90;;;;;;4847275;29;20025;-85
2021/08/01 09:06:38;;;;;;;9.93;8.80;;;24.00;99.90;;;;;;4849553;29;20054;-85
2021/08/01 09:09:04;;;;;;;11.17;7.23;;;24.40;99.90;;;;;;4867886;29;20034;-86
2021/08/01 09:11:30;;;;;;;9.60;8.60;;;24.80;99.90;;;;;;4853025;29;20088;-86
2021/08/01 09:13:57;;;;;;;10.75;7.90;;;25.20;99.90;;;;;;4852325;29;20259;-86
2021/08/01 09:16:40;;;;;;;10.27;8.50;;;25.40;99.90;;;;;;4852006;29;20022;-86
2021/08/01 09:19:23;;;;;;;9.40;8.10;;;25.50;99.90;;;;;;4867746;29;20034;-85
2021/08/01 09:21:49;;;;;;;10.55;7.85;;;25.70;99.90;;;;;;4853526;29;20214;-85
2021/08/01 09:24:15;;;;;;;7.95;6.85;;;25.80;99.90;;;;;;4852902;29;20062;-85
2021/08/01 09:27:07;;;;;;;9.93;7.78;;;26.00;99.90;;;;;;4848674;29;20038;-85
2021/08/01 09:29:46;;;;;;;8.35;7.35;;;26.30;98.80;;;;;;4873074;29;20053;-84
2021/08/01 09:32:13;;;;;;;10.73;7.95;;;26.40;97.90;;;;;;4857630;29;20096;-85
2021/08/01 09:34:45;;;;;;;11.20;7.25;;;26.30;98.40;;;;;;4884224;29;20039;-85
2021/08/01 09:37:11;;;;;;;10.13;8.07;;;26.40;98.40;;;;;;4852784;29;20437;-84
2021/08/01 09:39:43;;;;;;;9.93;7.75;;;26.50;97.40;;;;;;4857665;29;20036;-85
2021/08/01 09:42:14;;;;;;;9.90;7.25;;;26.70;96.70;;;;;;4857900;29;20068;-86
2021/08/01 09:44:41;;;;;;;10.00;7.43;;;26.90;96.50;;;;;;4879586;29;20032;-87
2021/08/01 09:47:25;;;;;;;9.73;6.72;;;26.90;96.50;;;;;;4877899;29;20045;-86
2021/08/01 09:50:07;;;;;;;9.57;6.43;;;27.20;96.80;;;;;;4876798;29;20028;-86
2021/08/01 09:52:33;;;;;;;8.93;6.72;;;27.80;94.40;;;;;;4856619;29;20029;-86
2021/08/01 09:54:59;;;;;;;11.00;6.97;;;27.90;93.90;;;;;;4851392;29;20044;-87
2021/08/01 09:57:25;;;;;;;8.32;7.40;;;27.90;93.30;;;;;;4873082;29;20025;-87
2021/08/01 10:00:10;;;;;;;9.68;7.85;;;27.80;93.20;;;;;;4872688;29;20024;-87
2021/08/01 10:02:38;;;;;;;10.63;7.80;;;27.40;92.90;;;;;;4859414;29;20586;-86
2021/08/01 10:05:21;;;;;;;12.13;7.50;;;27.10;93.00;;;;;;4857750;29;20064;-86
2021/08/01 10:07:51;;;;;;;10.75;7.78;;;26.60;93.80;;;;;;4854471;29;20037;-85
2021/08/01 10:10:24;;;;;;;8.95;8.05;;;26.30;94.50;;;;;;4866351;29;20057;-86
2021/08/01 10:12:57;;;;;;;10.20;8.27;;;26.20;95.50;;;;;;4873599;29;20037;-86
2021/08/01 10:15:24;;;;;;;15.23;8.70;;;26.00;96.20;;;;;;4871660;29;20060;-85
2021/08/01 10:17:51;;;;;;;;;;;25.90;96.80;;;;;;4874109;29;20359;-85
2021/08/01 10:20:17;;;;;;;16.20;8.75;;;25.70;96.60;;;;;;4845360;29;20358;-85
2021/08/01 10:22:44;;;;;;;16.08;8.23;;;25.60;96.90;;;;;;4843164;29;20046;-85
2021/08/01 10:25:24;;;;;;;11.85;8.38;;;25.30;97.00;;;;;;4853582;29;20352;-86
2021/08/01 10:27:53;;;;;;;9.23;7.68;;;25.20;97.80;;;;;;4853325;29;20121;-85
2021/08/01 10:30:21;;;;;;;8.77;7.47;;;25.00;98.10;;;;;;4849961;29;20030;-85
2021/08/01 10:32:52;;;;;;;9.23;6.97;;;25.00;98.40;;;;;;4838401;29;20053;-85
2021/08/01 10:35:21;;;;;;;10.00;8.25;;;25.00;98.60;;;;;;4852620;29;20229;-85
2021/08/01 10:38:30;;;;;;;9.23;6.97;;;25.10;99.10;;;;;;4853895;29;20060;-85
2021/08/01 10:41:17;;;;;;;11.90;7.65;;;25.10;98.30;;;;;;4818050;29;20041;-87
2021/08/01 10:44:10;;;;;;;10.10;7.60;;;25.10;98.60;;;;;;4816849;29;20050;-86
2021/08/01 10:46:44;;;;;;;7.85;6.55;;;25.10;98.70;;;;;;4777342;30;20388;-86
2021/08/01 10:49:14;;;;;;;8.63;6.40;;;25.30;99.30;;;;;;4744164;30;20101;-86
2021/08/01 10:52:11;;;;;;;7.45;6.22;;;25.60;97.60;;;;;;4783818;30;20208;-86
2021/08/01 10:55:09;;;;;;;7.35;5.47;;;26.10;98.20;;;;;;4747459;30;20108;-87
2021/08/01 10:58:27;;;;;;;7.47;5.32;;;26.90;95.70;;;;;;4736477;30;20037;-86
2021/08/01 11:02:15;;;;;;;7.93;5.38;;;27.40;94.10;;;;;;4708844;30;20049;-86
2021/08/01 11:10:15;;;;;;;;;;;;;;;;;;;;;
2021/08/01 11:17:48;;;;;;;9.10;5.25;;;28.50;89.40;;;;;;4620631;30;20386;-86
2021/08/01 11:20:23;;;;;;;6.57;4.80;;;28.60;88.60;;;;;;4621179;30;20047;-82
2021/08/01 11:22:53;;;;;;;6.53;4.22;;;28.50;90.30;;;;;;4630040;31;20271;-82
2021/08/01 11:25:32;;;;;;;9.50;5.25;;;28.70;88.30;;;;;;4609807;31;20052;-82
2021/08/01 11:28:10;;;;;;;4.90;4.40;;;28.90;85.50;;;;;;4624541;30;20151;-83
2021/08/01 11:31:13;;;;;;;6.15;4.00;;;29.10;85.40;;;;;;4620292;30;20359;-84
2021/08/01 11:33:43;;;;;;;6.28;3.78;;;29.00;81.40;;;;;;4663334;30;20274;-84
2021/08/01 11:36:18;;;;;;;7.85;4.20;;;28.90;82.50;;;;;;4690632;30;20050;-83
2021/08/01 11:39:20;;;;;;;5.03;3.83;;;28.80;81.00;;;;;;4643988;30;20055;-89
2021/08/01 11:56:45;;;;;;;2.27;2.03;;;28.70;73.90;;;;;;4238866;27;16414022;-87
2021/08/01 11:59:16;;;;;;;2.40;1.90;;;28.80;76.50;;;;;;4811083;28;3118027;-86
2021/08/01 12:01:44;;;;;;;2.42;2.00;;;28.90;74.60;;;;;;4897770;28;20048;-85
2021/08/01 12:04:13;;;;;;;2.83;2.28;;;28.90;72.50;;;;;;5079517;28;20040;-86
2021/08/01 12:07:00;;;;;;;1.80;1.70;;;28.60;75.40;;;;;;5024894;28;20041;-87
2021/08/01 12:09:40;;;;;;;3.78;2.25;;;28.30;74.90;;;;;;5027594;28;20044;-86
2021/08/01 12:12:07;;;;;;;2.97;2.30;;;28.00;74.40;;;;;;4981944;28;20049;-86
2021/08/01 12:14:55;;;;;;;3.80;2.80;;;27.90;77.10;;;;;;4979092;28;20074;-86
2021/08/01 12:17:41;;;;;;;2.97;2.67;;;27.80;77.10;;;;;;4976117;28;20039;-85
2021/08/01 12:20:08;;;;;;;3.00;2.67;;;27.70;78.40;;;;;;4947873;29;20042;-86
2021/08/01 12:22:37;;;;;;;;;;;27.70;80.00;;;;;;4941415;29;20040;-85
2021/08/01 12:25:07;;;;;;;3.38;2.53;;;27.40;76.50;;;;;;4929589;29;19907;-87
2021/08/01 12:27:36;;;;;;;6.32;2.10;;;27.20;76.20;;;;;;4939394;29;20305;-86
2021/08/01 12:30:28;;;;;;;2.67;1.80;;;27.10;74.90;;;;;;4969388;28;20050;-87
2021/08/01 12:32:54;;;;;;;6.30;4.72;;;27.10;75.10;;;;;;4939627;29;20043;-87
2021/08/01 12:35:26;;;;;;;4.88;1.77;;;27.10;77.00;;;;;;4942645;29;20031;-86
2021/08/01 12:38:08;;;;;;;1.75;1.45;;;27.10;76.40;;;;;;4973041;28;20274;-85
2021/08/01 12:40:47;;;;;;;3.47;1.98;;;26.90;76.20;;;;;;4982401;28;20034;-86
2021/08/01 12:43:29;;;;;;;2.08;1.20;;;26.70;76.40;;;;;;4982864;28;20041;-86
2021/08/01 12:46:28;;;;;;;1.63;1.13;;;26.50;74.10;;;;;;4958945;28;20371;-87
2021/08/01 12:48:55;;;;;;;1.73;0.98;;;26.10;75.80;;;;;;4891524;29;20134;-87
2021/08/01 12:51:20;;;;;;;;;;;25.70;76.10;;;;;;4911564;29;20029;-85
2021/08/01 12:53:46;;;;;;;1.27;1.00;;;25.30;76.90;;;;;;4945271;29;19914;-84
2021/08/01 12:56:15;;;;;;;1.25;0.90;;;25.10;78.90;;;;;;4945670;29;20083;-86
2021/08/01 12:58:43;;;;;;;4.05;1.00;;;25.00;79.60;;;;;;4949029;29;20250;-86
2021/08/01 13:01:10;;;;;;;5.68;0.90;;;24.80;80.60;;;;;;4943499;29;20316;-80
2021/08/01 13:03:43;;;;;;;1.85;1.00;;;24.50;81.50;;;;;;4932711;29;20040;-85
2021/08/01 13:06:11;;;;;;;1.15;0.93;;;24.30;83.30;;;;;;4930505;29;20031;-85
2021/08/01 13:08:37;;;;;;;0.80;0.80;;;24.20;84.10;;;;;;4943218;29;20047;-85
2021/08/01 13:11:03;;;;;;;1.35;0.98;;;24.10;84.60;;;;;;4929891;29;20079;-86
2021/08/01 13:13:29;;;;;;;3.27;0.80;;;24.00;84.10;;;;;;4935562;29;20028;-85
2021/08/01 13:15:58;;;;;;;0.90;0.60;;;24.00;84.30;;;;;;4914965;28;20299;-85
2021/08/01 13:18:34;;;;;;;4.43;1.30;;;24.10;84.50;;;;;;4952939;28;20050;-85
2021/08/01 13:21:17;;;;;;;1.52;1.10;;;23.80;80.50;;;;;;5024765;28;20230;-85
2021/08/01 13:23:45;;;;;;;1.90;0.90;;;23.50;83.00;;;;;;5045277;28;20060;-84
2021/08/01 13:26:30;;;;;;;1.30;0.82;;;23.50;83.90;;;;;;5045415;28;20041;-84
2021/08/01 13:29:05;;;;;;;1.45;1.20;;;23.40;83.60;;;;;;5043889;28;20369;-80
2021/08/01 13:31:37;;;;;;;2.25;1.00;;;23.10;85.20;;;;;;5038028;28;20075;-80
2021/08/01 13:34:05;;;;;;;3.28;1.80;;;22.90;85.10;;;;;;5064625;28;20025;-81
2021/08/01 13:36:41;;;;;;;4.85;2.30;;;22.80;86.00;;;;;;5047302;28;20056;-82
2021/08/01 13:39:21;;;;;;;5.30;3.30;;;22.70;87.40;;;;;;5045587;28;20029;-82
2021/08/01 13:42:03;;;;;;;1.60;1.35;;;22.60;86.00;;;;;;5064614;28;20116;-81
2021/08/01 13:44:44;;;;;;;3.38;1.60;;;22.40;86.10;;;;;;5060250;28;20048;-84
2021/08/01 13:47:17;;;;;;;6.38;1.30;;;22.30;85.70;;;;;;5029293;28;20049;-82
2021/08/01 13:49:52;;;;;;;3.15;1.70;;;22.20;87.60;;;;;;5035171;28;20063;-84
2021/08/01 13:52:23;;;;;;;5.57;2.17;;;22.00;88.50;;;;;;5047425;28;20099;-84
2021/08/01 13:54:53;;;;;;;3.33;2.67;;;21.80;89.50;;;;;;5047269;28;20128;-85
2021/08/01 13:57:23;;;;;;;5.55;1.90;;;21.70;90.00;;;;;;5047256;28;20152;-83
2021/08/01 13:59:58;;;;;;;4.20;2.10;;;21.70;90.60;;;;;;5030108;28;20090;-84
2021/08/01 14:02:25;;;;;;;3.83;1.60;;;21.60;91.30;;;;;;5030726;28;20029;-83
2021/08/01 14:04:52;;;;;;;3.72;2.63;;;21.30;91.80;;;;;;5025222;28;20037;-83
2021/08/01 14:07:18;;;;;;;5.72;2.30;;;21.20;93.00;;;;;;5047457;28;20033;-84
2021/08/01 14:09:44;;;;;;;4.45;2.50;;;21.10;93.30;;;;;;5031902;28;20037;-82
2021/08/01 14:12:11;;;;;;;3.30;2.25;;;21.00;94.40;;;;;;5030911;28;20060;-82
2021/08/01 14:14:37;;;;;;;4.93;2.63;;;20.80;95.70;;;;;;5047120;28;20212;-82
2021/08/01 14:17:06;;;;;;;14.68;3.55;;;20.60;96.80;;;;;;5063402;28;20017;-82
2021/08/01 14:19:32;;;;;;;7.57;2.83;;;20.50;97.20;;;;;;5045857;28;20063;-81
2021/08/01 14:21:59;;;;;;;5.88;2.75;;;20.50;98.20;;;;;;5047418;28;20325;-82
2021/08/01 14:24:24;;;;;;;9.00;3.45;;;20.40;99.10;;;;;;5047351;28;20028;-81
2021/08/01 14:26:51;;;;;;;3.28;2.55;;;20.30;99.30;;;;;;5064134;28;20060;-81
2021/08/01 14:29:21;;;;;;;4.13;2.53;;;20.40;99.90;;;;;;5063968;28;20051;-82
2021/08/01 14:31:48;;;;;;;4.53;2.72;;;20.50;99.90;;;;;;5047255;28;20507;-82
2021/08/01 14:34:14;;;;;;;;;;;20.40;99.90;;;;;;5047113;28;20025;-83
2021/08/01 14:36:40;;;;;;;3.50;2.17;;;20.40;99.90;;;;;;5061550;28;19983;-83
2021/08/01 14:39:15;;;;;;;3.28;2.42;;;20.30;99.90;;;;;;5067195;28;20036;-83
2021/08/01 14:41:42;;;;;;;2.80;2.35;;;20.40;99.90;;;;;;5058169;28;20045;-83
2021/08/01 14:44:09;;;;;;;2.88;2.38;;;20.40;99.90;;;;;;5047094;28;20100;-83
2021/08/01 14:46:36;;;;;;;4.03;2.38;;;20.30;99.90;;;;;;5061577;28;20036;-83
2021/08/01 14:49:09;;;;;;;4.93;2.50;;;20.20;99.90;;;;;;5076863;28;20108;-84
2021/08/01 14:54:28;;;;;;;3.27;2.23;;;20.10;99.90;;;;;;5067123;28;20035;-84
2021/08/01 14:57:17;;;;;;;4.53;2.53;;;20.00;99.90;;;;;;5061565;28;20049;-84
2021/08/01 14:59:48;;;;;;;2.97;1.98;;;20.20;99.90;;;;;;4964818;28;20023;-85
2021/08/01 15:05:57;;;;;;;3.00;2.15;;;20.30;99.90;;;;;;4962434;29;20421;-85
2021/08/01 15:08:54;;;;;;;3.53;2.30;;;20.20;99.90;;;;;;4953994;29;20222;-85
2021/08/01 15:11:24;;;;;;;5.75;2.22;;;20.30;99.90;;;;;;4995147;28;20035;-84
2021/08/01 15:14:14;;;;;;;4.05;2.50;;;20.30;99.90;;;;;;4965598;29;20034;-84
2021/08/01 15:16:45;;;;;;;3.28;2.75;;;20.40;99.90;;;;;;4982076;28;20041;-85
2021/08/01 15:19:17;;;;;;;3.20;1.85;;;20.40;99.90;;;;;;4993141;28;20032;-83
2021/08/01 15:21:47;;;;;;;3.42;1.88;;;20.40;99.90;;;;;;4950109;29;20023;-84
2021/08/01 15:24:48;;;;;;;2.90;1.90;;;20.40;99.90;;;;;;4933188;29;20098;-84
2021/08/01 15:27:14;;;;;;;3.55;2.15;;;20.20;99.90;;;;;;4928869;29;20088;-83
2021/08/01 15:29:41;;;;;;;3.00;2.17;;;20.10;99.90;;;;;;4928721;29;20032;-83
2021/08/01 15:32:10;;;;;;;2.33;1.90;;;20.00;99.90;;;;;;4913274;29;20039;-83
2021/08/01 15:34:39;;;;;;;2.63;2.40;;;20.00;99.90;;;;;;4898943;29;20040;-84
2021/08/01 15:37:07;;;;;;;2.55;2.28;;;19.90;99.90;;;;;;4929813;29;20023;-83
2021/08/01 15:39:33;;;;;;;;;;;19.90;99.90;;;;;;4913001;29;20028;-82
2021/08/01 15:41:59;;;;;;;5.75;2.25;;;20.00;99.90;;;;;;4938808;29;20241;-82
2021/08/01 15:44:27;;;;;;;4.30;2.13;;;19.90;99.90;;;;;;4945192;29;20036;-84
2021/08/01 15:46:56;;;;;;;2.38;2.15;;;20.00;99.90;;;;;;4929630;29;20051;-84
2021/08/01 15:49:21;;;;;;;3.55;2.28;;;20.10;99.90;;;;;;4929306;29;20039;-84
2021/08/01 15:51:53;;;;;;;5.93;2.30;;;20.10;99.90;;;;;;4930077;29;20647;-85
2021/08/01 15:54:36;;;;;;;2.85;2.40;;;20.20;99.90;;;;;;4929660;29;20039;-85
2021/08/01 15:57:13;;;;;;;3.45;2.10;;;20.30;99.90;;;;;;4910792;29;20028;-84
2021/08/01 16:00:03;;;;;;;4.40;2.17;;;20.30;99.90;;;;;;4905976;29;20330;-85
2021/08/01 16:03:04;;;;;;;3.80;1.92;;;20.30;99.90;;;;;;4942912;29;20053;-85
2021/08/01 16:05:33;;;;;;;3.25;2.38;;;20.40;99.90;;;;;;4965126;29;20043;-85
2021/08/01 16:08:15;;;;;;;3.55;2.05;;;20.30;99.90;;;;;;4980892;28;20047;-84
2021/08/01 16:10:42;;;;;;;2.15;1.98;;;20.40;99.90;;;;;;4981049;28;20055;-85
2021/08/01 16:13:14;;;;;;;5.60;2.38;;;20.30;99.90;;;;;;4977595;28;20295;-86
2021/08/01 16:15:46;;;;;;;2.05;1.60;;;20.30;99.90;;;;;;4964895;28;20337;-86
2021/08/01 16:18:15;;;;;;;3.05;1.88;;;20.30;98.90;;;;;;4981079;28;20094;-86
2021/08/01 16:20:46;;;;;;;2.40;1.50;;;20.20;99.50;;;;;;4965133;29;20059;-86
2021/08/01 16:23:15;;;;;;;6.20;1.80;;;20.30;98.90;;;;;;4966002;29;20031;-86